Onaway, MI (49765)

4:38 AM EST on November 27, 2014 (GMT -0500)
Rainy River | Change Station
CLOSE
Current Station
Personal Weather Station
Location: Onaway, MI
Elevation: 673 ft
Nearby Weather Stations
Active Advisory: Winter Weather Statement

Elev 673 ft 45.43 °N, 84.20 °W | Updated 4 seconds ago

Snow
Snow
23.5 °F
Feels Like 24 °F
N
0.0
Wind Variable Wind from ENE

Today
High -- | Low -- °F
--% Chance of Precip.
Yesterday
High -- | Low -- °F
Precip. -- in
7:51 AM 4:57 PM
Waxing Crescent, 28% visible
Pressure 30.10 in
Visibility 10.0 miles
Clouds Scattered Clouds 1500 ft
Scattered Clouds 3600 ft
Overcast 8000 ft
Windchill 24 °F
Dew Point 22 °F
Humidity 95%
Rainfall 0.00 in
Snow Depth Not available.
UV 0 out of 12
Pollen .10 out of 12
Air Quality Not available.
Flu Activity Not available.
METAR KPZQ 270934Z AUTO 26005KT 10SM SCT015 SCT036 OVC080 M03/M04 A3010 RMK AO2 T10311036

More Conditions Fewer Conditions

Pressure 30.10 in
Visibility 10.0 miles
Clouds Scattered Clouds 1500 ft
Scattered Clouds 3600 ft
Overcast 8000 ft
Windchill 24 °F
Dew Point 22 °F
Humidity 95%
Rainfall 0.00 in
Snow Depth Not available.
UV 0 out of 12
Pollen .10 out of 12
Air Quality Not available.
Flu Activity Not available.
METAR KPZQ 270934Z AUTO 26005KT 10SM SCT015 SCT036 OVC080 M03/M04 A3010 RMK AO2 T10311036

More Conditions Fewer Conditions

Nowcast | as of 4:00 am EST on November 27, 2014

At 5 am...snow showers. Temperature 25. Light winds. At 7 am...snow. Temperature 24. Northwest winds 6 mph. At 9 am...snow. Temperature 24. Northwest winds 11 mph. At 11 am...snow. Temperature 24. Northwest winds 15 mph.

×

10-Day Weather Forecast

Almanac

Astronomy

Nov. 27, 2014 Rise Set
Actual Time
Civil Twilight
Nautical Twilight
Astronomical Twilight
Moon
Length of Visible Light
Length of Day
Tomorrow will be .
, % of the Moon is Illuminated

Today's Extremes

State Highs State Lows

Community

WunderPhotos

Upload Photos

1,773,965 photos uploaded!

WunderBlogs® & News

Nearby

Air Quality

  Air Quality AQ Index Pollutant
Not available.

Snow Depth

Station Depth Elevation

Earthquake Activity

City Distance Mag. Time & Date
Minimum magnitude displayed is 2.5.

Coastal Water Temperatures

Place Temperature

Nearby Weather Stations